Time;durP1;ratioP1;P1;durP2;ratioP2;P2;SDS_P1;SDS_P2;PMS_P1;PMS_P2;Temp;Humidity;BMP_temperature;BMP_pressure;BME280_temperature;BME280_humidity;BME280_pressure;Samples;Min_cycle;Max_cycle;Signal;HPM_P1;HPM_P2
2022/05/26 00:01:36;;;;;;;;;0.00;0.00;;;;;16.77;59.91;101399.06;5006601;28;45550;-77
2022/05/26 00:04:01;;;;;;;;;1.00;1.00;;;;;16.73;59.97;101391.22;5011737;28;45691;-78
2022/05/26 00:06:27;;;;;;;;;1.25;0.25;;;;;16.77;60.28;101399.06;5008292;28;45526;-79
2022/05/26 00:08:53;;;;;;;;;1.00;0.00;;;;;16.76;60.25;101408.00;5013110;28;45734;-77
2022/05/26 00:11:26;;;;;;;;;0.50;0.50;;;;;16.76;60.29;101405.34;5010945;28;45557;-77
2022/05/26 00:13:52;;;;;;;;;0.50;0.50;;;;;16.76;60.25;101408.00;5011983;28;45572;-81
2022/05/26 00:16:18;;;;;;;;;0.25;0.25;;;;;16.76;60.32;101410.69;5013723;28;45526;-81
2022/05/26 00:18:44;;;;;;;;;1.00;1.00;;;;;16.73;60.27;101413.41;5025076;28;45399;-80
2022/05/26 00:21:09;;;;;;;;;0.00;0.00;;;;;16.70;60.84;101408.19;5015007;28;45363;-80
2022/05/26 00:23:34;;;;;;;;;0.75;0.75;;;;;16.68;60.70;101413.56;5013646;28;45462;-80
2022/05/26 00:26:00;;;;;;;;;0.50;0.50;;;;;16.67;60.49;101413.63;5021265;28;45263;-77
2022/05/26 00:28:25;;;;;;;;;0.00;0.00;;;;;16.64;60.53;101398.59;5013003;28;45461;-78
2022/05/26 00:30:53;;;;;;;;;0.00;0.00;;;;;16.65;60.59;101405.66;5010860;28;45523;-78
2022/05/26 00:33:19;;;;;;;;;0.25;0.25;;;;;16.54;60.64;101396.28;5010445;28;45535;-77
2022/05/26 00:35:45;;;;;;;;;0.50;0.50;;;;;16.59;60.72;101405.00;5011697;28;46093;-77
2022/05/26 00:38:13;;;;;;;;;0.25;0.25;;;;;16.58;60.65;101408.59;5000262;28;45546;-77
2022/05/26 00:40:41;;;;;;;;;0.50;0.50;;;;;16.53;60.98;101414.06;5005355;28;45692;-78
2022/05/26 00:43:07;;;;;;;;;1.00;1.00;;;;;16.51;60.75;101419.44;5010259;28;45674;-77
2022/05/26 00:45:37;;;;;;;;;2.00;1.00;;;;;16.54;61.08;101409.63;5006149;28;45450;-77
2022/05/26 00:48:09;;;;;;;;;0.50;0.50;;;;;16.51;60.66;101416.78;5023264;28;45490;-78
2022/05/26 00:50:44;;;;;;;;;0.00;0.00;;;;;16.43;60.51;101401.97;5009177;28;45441;-78
2022/05/26 00:53:18;;;;;;;;;1.50;1.00;;;;;16.52;60.92;101413.22;5015157;28;45369;-78
2022/05/26 00:55:53;;;;;;;;;0.00;0.00;;;;;16.43;60.92;101409.97;5005868;28;46058;-76
2022/05/26 00:58:24;;;;;;;;;0.00;0.00;;;;;16.46;60.83;101410.72;5014920;28;45434;-79
2022/05/26 01:00:50;;;;;;;;;0.00;0.00;;;;;16.33;60.97;101391.56;5015089;28;45579;-78
2022/05/26 01:03:28;;;;;;;;;0.50;0.00;;;;;16.42;60.70;101414.41;5014122;28;45588;-80
2022/05/26 01:06:17;;;;;;;;;0.00;0.00;;;;;16.41;60.98;101412.66;5014105;28;45471;-79
2022/05/26 01:08:54;;;;;;;;;2.00;2.00;;;;;16.39;61.21;101414.50;5012136;28;45412;-81
2022/05/26 01:11:20;;;;;;;;;0.00;0.00;;;;;16.35;60.91;101423.50;5015615;28;45427;-79
2022/05/26 01:13:52;;;;;;;;;0.00;0.00;;;;;16.34;60.65;101424.47;5011255;28;45496;-81
2022/05/26 01:16:26;;;;;;;;;0.50;0.50;;;;;16.30;60.96;101420.13;5013488;28;46889;-80
2022/05/26 01:19:32;;;;;;;;;1.00;0.00;;;;;16.29;61.04;101426.38;5014475;28;45529;-80
2022/05/26 01:22:21;;;;;;;;;0.00;0.00;;;;;16.24;61.41;101430.97;5015100;28;45586;-79
2022/05/26 01:24:49;;;;;;;;;2.00;1.00;;;;;16.17;61.52;101425.84;5021606;28;45417;-80
2022/05/26 01:27:31;;;;;;;;;1.00;1.00;;;;;16.12;61.62;101427.78;5012307;28;45521;-80
2022/05/26 01:30:11;;;;;;;;;0.50;0.50;;;;;16.08;61.59;101431.44;5012906;28;45396;-80
2022/05/26 01:32:49;;;;;;;;;2.75;0.00;;;;;16.08;61.95;101431.44;5012218;28;45471;-79
2022/05/26 01:35:19;;;;;;;;;0.00;0.00;;;;;16.03;62.24;101425.34;5018660;28;45533;-80
2022/05/26 01:38:19;;;;;;;;;1.00;1.00;;;;;16.01;62.31;101440.53;5014838;28;46091;-80
2022/05/26 01:41:00;;;;;;;;;4.00;1.00;;;;;15.97;62.65;101433.53;5013885;28;46556;-80
2022/05/26 01:43:32;;;;;;;;;0.75;0.75;;;;;15.95;62.69;101432.72;5011741;28;45454;-79
2022/05/26 01:46:07;;;;;;;;;0.00;0.00;;;;;15.99;62.51;101429.06;5000021;28;45424;-80
2022/05/26 01:48:44;;;;;;;;;0.75;0.75;;;;;15.99;62.36;101435.25;5010819;28;45523;-80
2022/05/26 01:51:15;;;;;;;;;0.00;0.00;;;;;16.03;62.33;101438.69;4995213;28;45453;-80
2022/05/26 01:54:01;;;;;;;;;0.00;0.00;;;;;16.06;62.48;101433.25;5016035;28;45595;-80
2022/05/26 01:56:36;;;;;;;;;1.25;0.00;;;;;16.06;62.67;101443.94;5008648;28;45441;-80
2022/05/26 01:59:15;;;;;;;;;0.00;0.00;;;;;16.04;62.65;101435.13;5006220;28;46384;-80
2022/05/26 02:01:45;;;;;;;;;0.00;0.00;;;;;16.02;62.69;101431.63;5005621;28;45564;-80
2022/05/26 02:04:38;;;;;;;;;0.25;0.00;;;;;16.03;62.56;101428.03;5014919;28;45384;-78
2022/05/26 02:07:15;;;;;;;;;1.00;1.00;;;;;16.03;62.84;101443.16;5011176;28;45592;-79
2022/05/26 02:09:43;;;;;;;;;2.25;0.50;;;;;16.00;62.69;101428.13;5016396;28;46959;-79
2022/05/26 02:12:18;;;;;;;;;0.50;0.50;;;;;15.96;62.75;101426.47;5017346;28;45367;-78
2022/05/26 02:14:47;;;;;;;;;1.00;1.00;;;;;15.94;62.95;101431.84;5018142;28;45514;-80
2022/05/26 02:17:19;;;;;;;;;0.00;0.00;;;;;15.96;62.73;101431.81;5007795;28;45421;-80
2022/05/26 02:19:56;;;;;;;;;0.00;0.00;;;;;15.90;62.61;101422.19;5004089;28;46572;-80
2022/05/26 02:22:30;;;;;;;;;1.50;0.75;;;;;15.94;62.83;101437.19;5018463;28;45025;-79
2022/05/26 02:25:16;;;;;;;;;1.00;1.00;;;;;15.78;62.67;101411.88;5021174;28;45419;-80
2022/05/26 02:27:42;;;;;;;;;0.00;0.00;;;;;15.88;62.88;101436.47;5002323;28;45425;-80
2022/05/26 02:30:12;;;;;;;;;0.00;0.00;;;;;15.77;62.86;101416.31;4999974;28;45585;-79
2022/05/26 02:32:47;;;;;;;;;0.75;0.00;;;;;15.89;63.42;101436.41;5022732;28;45520;-78
2022/05/26 02:35:18;;;;;;;;;1.00;1.00;;;;;15.88;62.81;101434.69;5020782;28;45625;-77
2022/05/26 02:37:47;;;;;;;;;0.25;0.25;;;;;15.87;63.17;101434.75;5004495;28;45598;-81
2022/05/26 02:40:14;;;;;;;;;1.00;1.00;;;;;15.87;62.94;101437.41;5013342;28;47153;-78
2022/05/26 02:43:10;;;;;;;;;1.25;0.00;;;;;15.87;63.07;101438.28;5015412;28;45735;-78
2022/05/26 02:45:43;;;;;;;;;1.00;1.00;;;;;15.86;63.13;101432.97;5009349;28;45757;-78
2022/05/26 02:48:31;;;;;;;;;0.25;0.25;;;;;15.86;63.04;101438.31;5009324;28;45471;-77
2022/05/26 02:51:14;;;;;;;;;0.00;0.00;;;;;15.84;63.05;101445.50;5013788;28;46775;-78
2022/05/26 02:54:08;;;;;;;;;0.00;0.00;;;;;15.83;63.29;101444.59;5023250;28;45403;-76
2022/05/26 02:56:48;;;;;;;;;1.25;1.25;;;;;15.80;63.46;101442.91;5013104;28;45487;-79
2022/05/26 02:59:34;;;;;;;;;1.00;1.00;;;;;15.79;63.55;101443.81;5016609;28;45336;-77
2022/05/26 03:02:09;;;;;;;;;0.00;0.00;;;;;15.78;63.67;101439.41;5016665;28;45344;-77
2022/05/26 03:04:41;;;;;;;;;0.50;0.50;;;;;15.78;63.63;101450.06;5014323;28;45513;-77
2022/05/26 03:07:12;;;;;;;;;0.00;0.00;;;;;15.74;63.51;101437.69;5011359;28;45601;-79
2022/05/26 03:09:40;;;;;;;;;1.00;1.00;;;;;15.77;63.49;101440.31;5022493;28;45612;-78
2022/05/26 03:12:24;;;;;;;;;0.00;0.00;;;;;15.76;63.75;101441.22;4997694;28;46202;-76
2022/05/26 03:14:49;;;;;;;;;0.50;0.25;;;;;15.78;63.66;101443.88;5010091;28;45502;-80
2022/05/26 03:17:15;;;;;;;;;0.75;0.75;;;;;15.74;63.93;101431.50;5018748;28;45501;-79
2022/05/26 03:19:40;;;;;;;;;1.00;1.00;;;;;15.71;63.96;101437.78;5038646;28;45502;-79
2022/05/26 03:22:05;;;;;;;;;0.00;0.00;;;;;15.75;64.04;101454.56;4998766;28;46217;-78
2022/05/26 03:24:30;;;;;;;;;1.00;1.00;;;;;15.73;64.05;101446.63;5015206;28;46794;-80
2022/05/26 03:26:56;;;;;;;;;0.00;0.00;;;;;15.70;64.36;101452.03;5009394;28;45495;-79
2022/05/26 03:29:21;;;;;;;;;0.00;0.00;;;;;15.66;64.31;101461.03;5015241;28;45379;-80
2022/05/26 03:31:47;;;;;;;;;0.50;0.50;;;;;15.60;64.61;101450.53;5013194;28;45607;-80
2022/05/26 03:42:25;;;;;;;;;1.00;0.00;;;;;15.43;64.93;101464.31;5010592;28;45485;-80
2022/05/26 03:44:50;;;;;;;;;0.00;0.00;;;;;15.43;64.95;101461.66;5017133;28;45396;-79
2022/05/26 03:47:16;;;;;;;;;2.00;1.00;;;;;15.44;64.72;101468.69;5015687;28;45643;-79
2022/05/26 03:49:41;;;;;;;;;1.50;1.50;;;;;15.44;65.04;101469.59;5020565;28;45627;-79
2022/05/26 03:52:07;;;;;;;;;1.75;0.75;;;;;15.45;64.98;101475.78;5011959;28;45451;-79
2022/05/26 03:54:33;;;;;;;;;0.00;0.00;;;;;15.36;65.88;101460.06;5000484;28;45532;-80
2022/05/26 03:56:59;;;;;;;;;0.50;0.50;;;;;15.37;66.37;101475.13;5010521;28;45627;-80
2022/05/26 03:59:24;;;;;;;;;3.00;1.00;;;;;15.34;67.61;101476.06;5016248;28;45604;-81
2022/05/26 04:01:50;;;;;;;;;1.00;1.00;;;;;15.39;67.72;101482.16;5016595;28;47172;-80
2022/05/26 04:04:17;;;;;;;;;0.50;0.50;;;;;15.42;67.36;101479.41;5016297;28;45530;-80
2022/05/26 04:06:43;;;;;;;;;0.00;0.00;;;;;15.37;67.24;101476.00;5005026;28;45376;-80
2022/05/26 04:09:08;;;;;;;;;1.00;1.00;;;;;15.39;66.63;101479.47;5025502;28;45433;-80
2022/05/26 04:11:35;;;;;;;;;0.50;0.50;;;;;15.38;66.28;101483.06;4997565;28;45483;-80
2022/05/26 04:14:00;;;;;;;;;0.00;0.00;;;;;15.36;66.03;101484.88;4997825;28;45431;-80
2022/05/26 04:16:26;;;;;;;;;0.00;0.00;;;;;15.39;66.09;101495.47;5001984;28;45380;-80
2022/05/26 04:18:52;;;;;;;;;0.00;0.00;;;;;15.40;65.33;101491.88;4998911;28;45555;-79
2022/05/26 04:21:18;;;;;;;;;0.00;0.00;;;;;15.40;65.21;101494.56;4998743;28;45497;-80
2022/05/26 04:23:43;;;;;;;;;4.00;1.00;;;;;15.36;64.89;101498.19;5017039;28;45792;-80
2022/05/26 04:26:10;;;;;;;;;0.75;0.75;;;;;15.40;64.84;101502.53;5015999;28;45574;-80
2022/05/26 04:28:35;;;;;;;;;0.00;0.00;;;;;15.43;64.62;101498.94;5017056;28;45306;-81
2022/05/26 04:31:01;;;;;;;;;1.50;0.00;;;;;15.40;64.59;101497.22;5016245;28;45309;-80
2022/05/26 04:33:27;;;;;;;;;1.00;0.25;;;;;15.39;64.66;101499.91;5017506;28;45443;-79
2022/05/26 04:35:53;;;;;;;;;0.00;0.00;;;;;15.43;64.66;101506.94;5018697;28;45317;-80
2022/05/26 04:38:19;;;;;;;;;0.00;0.00;;;;;15.44;64.57;101508.66;5019408;28;45505;-80
2022/05/26 04:40:45;;;;;;;;;0.00;0.00;;;;;15.46;64.70;101513.03;5023437;28;45342;-80
2022/05/26 04:43:11;;;;;;;;;0.25;0.00;;;;;15.45;64.74;101515.75;5022672;28;45458;-80
2022/05/26 04:45:37;;;;;;;;;0.50;0.00;;;;;15.46;64.42;101514.84;5038115;28;45452;-80
2022/05/26 04:48:03;;;;;;;;;2.75;0.25;;;;;15.47;64.60;101519.25;5018294;28;45438;-80
2022/05/26 04:50:28;;;;;;;;;0.00;0.00;;;;;15.44;64.62;101519.31;5015921;28;48560;-80
2022/05/26 04:52:53;;;;;;;;;1.50;0.75;;;;;15.45;64.53;101516.63;5016340;28;45430;-80
2022/05/26 04:55:19;;;;;;;;;1.00;1.00;;;;;15.44;64.75;101512.22;5017267;28;45316;-80
2022/05/26 04:57:44;;;;;;;;;0.00;0.00;;;;;15.55;64.55;101527.94;5016033;28;45292;-81
2022/05/26 05:00:13;;;;;;;;;0.00;0.00;;;;;15.54;64.35;101526.16;5019815;28;45558;-80
2022/05/26 05:02:39;;;;;;;;;1.00;1.00;;;;;15.56;64.21;101524.34;5027214;28;45409;-80
2022/05/26 05:05:05;;;;;;;;;1.00;1.00;;;;;15.56;64.47;101535.00;5027265;28;45449;-81
2022/05/26 05:07:31;;;;;;;;;1.50;1.00;;;;;15.58;64.47;101529.66;4998701;28;45387;-80
2022/05/26 05:09:56;;;;;;;;;0.25;0.25;;;;;15.62;64.62;101528.63;4994348;28;46619;-80
2022/05/26 05:12:24;;;;;;;;;0.75;0.00;;;;;15.63;64.60;101530.38;4995671;28;45359;-80
2022/05/26 05:14:52;;;;;;;;;2.00;0.00;;;;;15.61;64.63;101524.22;5018111;28;45393;-80
2022/05/26 05:17:20;;;;;;;;;0.50;0.50;;;;;15.72;64.12;101537.28;5010366;28;45557;-80
2022/05/26 05:19:48;;;;;;;;;0.75;0.75;;;;;15.73;63.88;101539.91;4996688;28;45388;-81
2022/05/26 05:22:34;;;;;;;;;0.00;0.00;;;;;15.75;63.79;101546.06;5010290;28;45545;-78
2022/05/26 05:25:08;;;;;;;;;1.00;1.00;;;;;15.78;63.41;101545.13;5015583;28;45485;-76
2022/05/26 05:27:44;;;;;;;;;2.75;1.00;;;;;15.81;63.31;101539.72;5010110;28;45462;-80
2022/05/26 05:30:17;;;;;;;;;0.25;0.25;;;;;15.81;63.43;101545.91;4997705;28;46516;-79
2022/05/26 05:32:49;;;;;;;;;1.50;1.50;;;;;15.86;63.46;101543.13;4995663;28;45564;-81
2022/05/26 05:35:20;;;;;;;;;2.00;1.00;;;;;15.86;63.28;101542.28;4995991;28;45365;-81
2022/05/26 05:37:45;;;;;;;;;1.00;1.00;;;;;15.86;63.20;101542.28;5003816;28;45552;-80
2022/05/26 05:40:11;;;;;;;;;1.00;1.00;;;;;15.84;63.06;101549.44;5000787;28;45466;-81
2022/05/26 05:42:37;;;;;;;;;0.00;0.00;;;;;15.85;63.10;101546.72;5018157;28;45336;-81
2022/05/26 05:45:02;;;;;;;;;0.00;0.00;;;;;15.90;63.14;101562.59;5021514;28;45305;-80
2022/05/26 05:47:28;;;;;;;;;0.00;0.00;;;;;15.90;62.94;101550.13;5010120;28;45344;-80
2022/05/26 05:49:53;;;;;;;;;0.00;0.00;;;;;15.96;63.18;101555.31;4999282;28;45690;-79
2022/05/26 05:52:21;;;;;;;;;1.00;1.00;;;;;16.00;63.05;101556.09;4999605;28;45539;-78
2022/05/26 05:54:46;;;;;;;;;0.00;0.00;;;;;16.06;62.86;101555.91;4997578;28;45457;-77
2022/05/26 05:57:12;;;;;;;;;2.00;0.50;;;;;16.11;62.70;101556.69;4998892;28;45585;-80
2022/05/26 05:59:37;;;;;;;;;0.00;0.00;;;;;16.17;62.46;101566.31;4999755;28;45472;-81
2022/05/26 06:02:03;;;;;;;;;1.00;1.00;;;;;16.12;62.42;101554.88;5001248;28;45470;-78
2022/05/26 06:04:29;;;;;;;;;2.50;0.00;;;;;16.27;61.99;101566.91;5016164;28;45327;-77
2022/05/26 06:06:54;;;;;;;;;1.00;1.00;;;;;16.31;62.44;101576.59;5013286;28;45357;-78
2022/05/26 06:09:20;;;;;;;;;2.75;0.00;;;;;16.35;62.00;101567.56;4998599;28;46023;-79
2022/05/26 06:11:48;;;;;;;;;0.00;0.00;;;;;16.41;61.80;101577.19;4998834;28;45414;-79
2022/05/26 06:14:13;;;;;;;;;1.50;0.00;;;;;16.40;61.52;101579.00;4999195;28;45415;-78
2022/05/26 06:16:39;;;;;;;;;0.75;0.75;;;;;16.45;61.47;101582.41;4998177;28;45498;-78
2022/05/26 06:19:04;;;;;;;;;0.00;0.00;;;;;16.50;61.32;101582.25;4997973;28;45596;-79
2022/05/26 06:21:31;;;;;;;;;0.50;0.50;;;;;16.55;61.00;101583.03;4998428;28;45451;-78
2022/05/26 06:23:58;;;;;;;;;0.00;0.00;;;;;16.59;60.87;101586.47;5000836;28;45477;-81
2022/05/26 06:26:25;;;;;;;;;0.00;0.00;;;;;16.60;60.45;101585.56;5000652;28;45486;-82
2022/05/26 06:31:35;;;;;;;;;0.00;0.00;;;;;16.59;61.16;101587.31;5006837;28;45422;-81
2022/05/26 06:39:28;;;;;;;;;0.00;0.00;;;;;16.87;59.60;101602.59;5005142;28;45710;-79
2022/05/26 06:42:06;;;;;;;;;1.25;0.00;;;;;16.90;59.52;101585.56;5002273;28;45431;-81
2022/05/26 06:44:42;;;;;;;;;0.00;0.00;;;;;17.07;58.84;101609.97;5003474;28;45316;-80
2022/05/26 06:47:11;;;;;;;;;0.00;0.00;;;;;17.05;59.16;101611.84;4999723;28;45321;-81
2022/05/26 06:49:38;;;;;;;;;0.00;0.00;;;;;17.09;58.93;101617.94;4998361;28;45367;-81
2022/05/26 06:52:05;;;;;;;;;0.00;0.00;;;;;17.08;58.78;101622.41;4999534;28;45347;-80
2022/05/26 06:54:32;;;;;;;;;1.00;1.00;;;;;17.14;58.63;101613.31;5017848;28;45453;-80
2022/05/26 06:56:58;;;;;;;;;0.25;0.25;;;;;17.24;58.50;101620.13;5020264;28;45614;-81
2022/05/26 06:59:24;;;;;;;;;0.00;0.00;;;;;17.32;58.54;101625.22;5039322;28;45987;-82
2022/05/26 07:01:50;;;;;;;;;0.00;0.00;;;;;17.41;58.23;101619.59;5035319;28;45540;-78
2022/05/26 07:04:15;;;;;;;;;0.00;0.00;;;;;17.53;57.92;101619.19;5009815;28;45335;-79
2022/05/26 07:06:41;;;;;;;;;0.00;0.00;;;;;17.70;57.72;101621.34;5002961;28;45395;-78
2022/05/26 07:09:06;;;;;;;;;0.25;0.25;;;;;17.87;56.67;101615.41;5037926;28;45417;-76
2022/05/26 07:11:32;;;;;;;;;0.00;0.00;;;;;18.02;56.71;101626.53;5029430;28;45483;-78
2022/05/26 07:13:58;;;;;;;;;0.75;0.75;;;;;18.13;56.12;101635.06;5017197;28;45446;-78
2022/05/26 07:16:23;;;;;;;;;0.50;0.50;;;;;18.07;56.92;101635.28;5016859;28;45407;-79
2022/05/26 07:18:50;;;;;;;;;0.00;0.00;;;;;17.88;57.51;101635.84;5033032;28;45469;-78
2022/05/26 07:21:16;;;;;;;;;0.00;0.00;;;;;17.80;57.36;101637.94;5026959;28;45387;-81
2022/05/26 07:23:42;;;;;;;;;3.00;1.75;;;;;17.71;57.17;101640.91;5018346;28;45330;-81
2022/05/26 07:26:14;;;;;;;;;0.75;0.75;;;;;17.71;56.45;101641.78;5019553;28;45531;-81
2022/05/26 07:28:40;;;;;;;;;0.75;0.00;;;;;17.67;56.32;101642.81;4997903;28;46173;-80
2022/05/26 07:31:08;;;;;;;;;0.50;0.50;;;;;17.68;56.19;101654.38;5007052;28;45363;-79
2022/05/26 07:33:33;;;;;;;;;1.25;0.75;;;;;17.85;56.29;101652.00;5036697;28;45602;-79
2022/05/26 07:36:00;;;;;;;;;0.00;0.00;;;;;18.25;55.38;101656.03;5036495;28;45508;-78
2022/05/26 07:41:23;;;;;;;;;0.00;0.00;;;;;19.68;52.34;101647.06;5013752;28;45625;-78
2022/05/26 07:43:54;;;;;;;;;0.00;0.00;;;;;20.23;50.40;101648.38;5008464;28;45436;-77
2022/05/26 07:46:23;;;;;;;;;0.00;0.00;;;;;20.54;49.38;101652.38;5004839;28;45442;-77
2022/05/26 07:48:49;;;;;;;;;0.00;0.00;;;;;20.34;51.84;101655.94;5001185;28;45427;-82
2022/05/26 07:51:16;;;;;;;;;0.00;0.00;;;;;20.08;53.63;101665.13;5009141;28;45340;-78
2022/05/26 07:53:42;;;;;;;;;0.00;0.00;;;;;19.81;54.27;101682.31;5013809;28;45368;-79
2022/05/26 07:56:09;;;;;;;;;0.00;0.00;;;;;19.64;55.02;101684.78;5010767;28;45353;-77
2022/05/26 07:58:35;;;;;;;;;0.00;0.00;;;;;19.52;56.88;101670.06;5014138;28;45475;-78
2022/05/26 08:01:03;;;;;;;;;0.00;0.00;;;;;19.57;55.85;101670.78;5012887;28;45393;-86
2022/05/26 08:03:38;;;;;;;;;0.00;0.00;;;;;19.55;54.63;101666.41;5003923;28;45475;-78
2022/05/26 08:06:04;;;;;;;;;0.00;0.00;;;;;19.69;54.34;101678.31;5011331;28;45669;-79
2022/05/26 08:08:38;;;;;;;;;0.25;0.00;;;;;19.88;53.37;101656.13;5016585;28;45525;-82
2022/05/26 08:11:04;;;;;;;;;1.00;0.00;;;;;20.53;52.80;101681.06;4999227;28;45491;-81
2022/05/26 08:13:29;;;;;;;;;0.00;0.00;;;;;20.62;51.25;101685.16;5006683;28;45427;-77
2022/05/26 08:15:55;;;;;;;;;0.00;0.00;;;;;20.51;53.44;101684.72;5000386;28;45325;-78
2022/05/26 08:18:20;;;;;;;;;0.00;0.00;;;;;20.08;55.01;101682.09;5012227;28;46248;-81
2022/05/26 08:20:46;;;;;;;;;0.00;0.00;;;;;19.83;56.34;101692.97;5014830;28;45455;-78
2022/05/26 08:23:13;;;;;;;;;0.00;0.00;;;;;19.68;56.29;101700.69;5014626;28;45456;-81
2022/05/26 08:25:39;;;;;;;;;0.00;0.00;;;;;19.48;56.95;101692.56;5023370;28;45513;-82
2022/05/26 08:28:05;;;;;;;;;0.00;0.00;;;;;19.39;58.47;101685.78;5008074;28;45506;-80
2022/05/26 08:30:31;;;;;;;;;2.50;0.75;;;;;19.51;58.03;101695.13;5010787;28;45515;-78
2022/05/26 08:32:56;;;;;;;;;1.00;0.00;;;;;19.70;57.96;101701.50;5010233;28;45463;-83
2022/05/26 08:35:24;;;;;;;;;1.50;0.50;;;;;19.87;57.12;101710.69;5018310;28;45594;-81
2022/05/26 08:37:49;;;;;;;;;1.00;0.00;;;;;19.97;56.25;101679.88;5007094;28;45473;-81
2022/05/26 08:40:37;;;;;;;;;0.00;0.00;;;;;20.24;56.75;101703.81;5020077;28;45436;-82
2022/05/26 08:43:04;;;;;;;;;0.50;0.50;;;;;20.17;54.84;101705.84;5005092;28;45477;-78
2022/05/26 08:45:33;;;;;;;;;0.75;0.75;;;;;20.09;54.84;101701.75;5019691;28;45468;-79
2022/05/26 08:48:00;;;;;;;;;0.00;0.00;;;;;20.44;54.97;101708.31;4993160;28;46322;-79
2022/05/26 08:50:30;;;;;;;;;3.00;1.75;;;;;20.82;53.43;101715.66;5008260;28;45409;-83
2022/05/26 08:53:28;;;;;;;;;3.00;2.00;;;;;20.71;52.39;101708.03;5010605;28;45621;-77
2022/05/26 08:55:55;;;;;;;;;2.00;2.00;;;;;20.48;51.89;101717.09;5026643;28;45694;-79
2022/05/26 08:58:34;;;;;;;;;2.00;2.00;;;;;20.97;51.88;101712.25;5002900;28;45503;-77
2022/05/26 09:01:03;;;;;;;;;0.25;0.25;;;;;21.55;49.83;101711.34;5011601;28;45474;-78
2022/05/26 09:03:34;;;;;;;;;0.00;0.00;;;;;21.72;49.09;101712.34;5008391;28;45502;-80
2022/05/26 09:06:07;;;;;;;;;1.00;1.00;;;;;22.33;48.46;101708.41;5013080;28;45496;-79
2022/05/26 09:14:30;;;;;;;;;1.00;0.00;;;;;23.52;44.52;101710.13;5009013;28;45493;-80
2022/05/26 09:17:00;;;;;;;;;0.00;0.00;;;;;23.37;44.25;101717.28;4989843;28;45499;-78
2022/05/26 09:19:32;;;;;;;;;0.00;0.00;;;;;23.51;43.60;101668.78;5002517;28;45561;-81
2022/05/26 09:21:59;;;;;;;;;0.00;0.00;;;;;24.81;41.73;101701.66;5012681;28;45513;-79
2022/05/26 09:24:31;;;;;;;;;0.00;0.00;;;;;25.30;39.51;101709.38;5013514;28;45457;-82
2022/05/26 09:27:07;;;;;;;;;0.00;0.00;;;;;25.10;39.88;101707.91;5009502;28;45597;-81
2022/05/26 09:29:37;;;;;;;;;0.00;0.00;;;;;24.80;42.11;101700.75;4994211;28;47242;-84
2022/05/26 09:32:05;;;;;;;;;0.00;0.00;;;;;24.51;41.09;101721.47;4996662;28;45486;-80
2022/05/26 09:34:33;;;;;;;;;0.50;0.50;;;;;23.97;41.26;101721.09;5014345;28;45466;-81
2022/05/26 09:37:10;;;;;;;;;1.25;0.00;;;;;23.54;42.56;101725.25;5008035;28;45549;-78
2022/05/26 09:39:44;;;;;;;;;1.00;0.00;;;;;23.26;42.61;101730.47;5014130;28;46100;-80
2022/05/26 09:42:15;;;;;;;;;1.00;0.50;;;;;23.05;42.92;101733.38;5009879;28;45600;-78
2022/05/26 09:44:46;;;;;;;;;1.00;0.75;;;;;22.79;42.62;101738.34;5014872;28;45367;-78
2022/05/26 09:47:32;;;;;;;;;0.00;0.00;;;;;22.64;42.89;101752.63;5010129;28;45348;-81
2022/05/26 09:50:00;;;;;;;;;2.25;0.00;;;;;22.48;42.63;101750.69;4995251;28;46209;-77
2022/05/26 09:52:38;;;;;;;;;1.00;1.00;;;;;22.35;42.87;101745.09;5012276;28;45512;-77
2022/05/26 09:55:24;;;;;;;;;0.00;0.00;;;;;22.54;42.42;101753.06;5011091;28;45526;-76
2022/05/26 09:58:03;;;;;;;;;0.00;0.00;;;;;22.64;42.97;101750.78;5014131;28;45518;-78
2022/05/26 10:00:37;;;;;;;;;0.50;0.00;;;;;22.93;43.57;101751.06;5010340;28;46625;-77
2022/05/26 10:03:09;;;;;;;;;1.25;0.00;;;;;23.17;41.65;101748.91;5010350;28;45463;-79
2022/05/26 10:06:01;;;;;;;;;0.00;0.00;;;;;23.30;41.05;101748.22;5010437;28;45478;-77
2022/05/26 10:08:54;;;;;;;;;0.00;0.00;;;;;23.28;41.09;101747.44;5002378;28;45383;-78
2022/05/26 10:11:47;;;;;;;;;1.50;0.00;;;;;23.12;41.27;101750.97;5007739;28;45514;-77
2022/05/26 10:14:50;;;;;;;;;0.00;0.00;;;;;22.91;42.20;101752.09;5015058;28;45489;-79
2022/05/26 10:17:48;;;;;;;;;0.00;0.00;;;;;22.82;41.72;101753.44;5016791;28;45446;-80
2022/05/26 10:20:44;;;;;;;;;0.25;0.25;;;;;22.78;42.11;101758.16;5000829;28;45482;-78
2022/05/26 10:23:48;;;;;;;;;1.00;0.00;;;;;23.05;41.94;101760.31;5024288;28;46318;-78
2022/05/26 10:26:31;;;;;;;;;0.00;0.00;;;;;23.96;40.97;101758.03;5019615;28;45473;-75
2022/05/26 10:29:24;;;;;;;;;0.50;0.00;;;;;24.86;38.88;101753.59;5019535;28;45490;-80
2022/05/26 10:32:05;;;;;;;;;0.00;0.00;;;;;25.70;37.42;101744.63;5021068;28;45576;-78
2022/05/26 10:34:33;;;;;;;;;0.00;0.00;;;;;26.23;36.64;101739.34;5028173;28;45511;-82
2022/05/26 10:37:40;;;;;;;;;0.00;0.00;;;;;26.12;36.33;101736.50;5000336;28;45544;-80
2022/05/26 10:40:21;;;;;;;;;0.00;0.00;;;;;25.73;36.75;101746.28;4979081;28;45433;-81
2022/05/26 10:43:03;;;;;;;;;0.00;0.00;;;;;25.42;36.96;101751.00;4996546;28;45481;-84
2022/05/26 10:45:39;;;;;;;;;1.00;1.00;;;;;25.12;37.92;101751.09;4984333;28;48094;-83
2022/05/26 10:48:19;;;;;;;;;0.00;0.00;;;;;24.85;38.46;101737.47;4996353;28;45790;-83
2022/05/26 10:50:52;;;;;;;;;1.00;1.00;;;;;24.87;38.34;101754.44;4986877;28;45688;-84
2022/05/26 10:53:23;;;;;;;;;1.00;1.00;;;;;24.89;38.12;101756.09;4982764;28;45629;-82
2022/05/26 10:56:21;;;;;;;;;0.75;0.75;;;;;25.19;38.95;101752.44;4988290;28;46324;-81
2022/05/26 10:58:52;;;;;;;;;0.00;0.00;;;;;25.64;37.03;101739.63;4994316;28;45348;-80
2022/05/26 11:01:28;;;;;;;;;0.00;0.00;;;;;25.67;37.17;101754.81;4997545;28;45531;-80
2022/05/26 11:04:01;;;;;;;;;0.00;0.00;;;;;25.58;37.38;101750.00;4993099;28;45442;-80
2022/05/26 11:06:31;;;;;;;;;1.75;1.75;;;;;25.46;37.45;101749.84;5001122;28;46888;-80
2022/05/26 11:09:22;;;;;;;;;1.75;1.75;;;;;25.60;37.28;101742.63;5002853;28;45566;-81
2022/05/26 11:11:54;;;;;;;;;0.00;0.00;;;;;25.73;36.12;101740.88;5002529;28;45609;-80
2022/05/26 11:17:23;;;;;;;;;0.00;0.00;;;;;26.72;35.34;101731.53;5007517;28;45401;-79
2022/05/26 11:19:53;;;;;;;;;0.00;0.00;;;;;27.18;35.40;101722.84;5008981;28;45552;-78
2022/05/26 11:22:18;;;;;;;;;0.75;0.75;;;;;27.51;33.32;101718.63;4998563;28;45481;-77
2022/05/26 11:24:48;;;;;;;;;0.00;0.00;;;;;27.46;33.17;101721.69;5020535;28;45847;-77
2022/05/26 11:27:25;;;;;;;;;0.00;0.00;;;;;27.27;33.12;101724.00;5012415;28;45508;-78
2022/05/26 11:29:56;;;;;;;;;0.00;0.00;;;;;26.96;34.13;101715.38;5014322;28;45568;-79
2022/05/26 11:38:33;;;;;;;;;0.75;0.00;;;;;26.49;34.05;101716.84;5014704;28;45569;-79
2022/05/26 11:40:58;;;;;;;;;0.00;0.00;;;;;26.89;33.76;101711.34;5014419;28;45450;-78
2022/05/26 11:43:58;;;;;;;;;0.00;0.00;;;;;26.91;33.63;101712.97;5019154;28;45348;-78
2022/05/26 11:46:41;;;;;;;;;0.00;0.00;;;;;26.92;33.67;101705.72;5013080;28;45364;-77
2022/05/26 11:49:11;;;;;;;;;0.50;0.50;;;;;26.82;34.22;101707.38;5013557;28;45473;-78
2022/05/26 11:51:42;;;;;;;;;0.00;0.00;;;;;26.94;33.86;101710.06;5006011;28;45498;-79
2022/05/26 11:54:30;;;;;;;;;0.00;0.00;;;;;26.90;33.97;101708.53;5005481;28;45561;-78
2022/05/26 11:56:56;;;;;;;;;0.00;0.00;;;;;26.79;34.06;101721.13;5011312;28;45272;-78
2022/05/26 11:59:32;;;;;;;;;0.00;0.00;;;;;26.61;34.81;101718.69;5019950;28;45452;-75
2022/05/26 12:02:00;;;;;;;;;0.00;0.00;;;;;26.56;34.67;101720.88;5015772;28;45273;-78
2022/05/26 12:04:45;;;;;;;;;0.00;0.00;;;;;26.59;35.18;101716.09;5012021;28;45583;-77
2022/05/26 12:07:25;;;;;;;;;0.00;0.00;;;;;26.50;35.82;101710.47;5009788;28;45599;-77
2022/05/26 12:09:54;;;;;;;;;0.00;0.00;;;;;26.39;35.84;101712.06;5014548;28;48265;-79
2022/05/26 12:12:19;;;;;;;;;0.25;0.25;;;;;26.31;35.00;101717.13;5006925;28;45676;-77
2022/05/26 12:14:48;;;;;;;;;0.50;0.00;;;;;26.28;35.73;101711.94;5011582;28;45656;-77
2022/05/26 12:17:31;;;;;;;;;0.00;0.00;;;;;26.10;35.38;101719.50;5014887;28;45624;-77
2022/05/26 12:20:11;;;;;;;;;0.00;0.00;;;;;26.02;36.21;101711.88;5024575;28;45504;-77